SBOSBO CBG / EGSC
Speedbird OnlineSpeedbird Online CBG / EGSC

Cambridge Airport
01:17 3.2°C

Location Cambridge, United Kingdom
Latitude: 52.205002
Longitude: 0.175
Web Airport Website | Wikipedia
Altitude 14 Meter / 47 Feet
Distance 77 KM / 48 Miles
from London.
Time Zone UTC 0 hours (Europe/London)
Codes IATA: CBG
ICAO: EGSC
Runways
RunwayLength (m)Surface
051965Asphalt
05G899Grass
10699Grass
231965Asphalt
23G899Grass
28699Grass
Radio
TypeDescriptionFrequency
APPCambridge Approach123.6
ATISCambridge Information134.6
RDRCambridge Radar124.975
TWRCambridge Tower122.2
Live ATC
METAR EGSC 261450Z 02012KT 9999 FEW016 BKN040 07/05 Q1030
TAF
Weather As Of 27 Jan 2023 01:17
Description Overcast clouds
Wind 2 km/h from North-West (324°)
Cloud Cover 100%
Precipitation Rain: none, Snow: none
Sunrise 07:48
Sunset 16:35
Rotations During the last 90 days there were
13 flights from GOT
3 flights from MAN
16 flights to MAN
8 flights to GOT



Support Speedbird Online

© 2017-2023 Speedbird Online